createdAt,value
2022-09-29T00:01:38.805Z,22.16
2022-09-29T00:04:05.359Z,22.15
2022-09-29T00:06:31.808Z,22.14
2022-09-29T00:08:58.350Z,22.13
2022-09-29T00:11:24.787Z,22.13
2022-09-29T00:13:51.512Z,22.11
2022-09-29T00:16:18.029Z,22.11
2022-09-29T00:18:45.081Z,22.10
2022-09-29T00:21:16.695Z,22.07
2022-09-29T00:23:43.184Z,22.08
2022-09-29T00:26:11.822Z,22.05
2022-09-29T00:28:39.199Z,22.03
2022-09-29T00:31:06.408Z,22.02
2022-09-29T00:33:33.651Z,22.00
2022-09-29T00:36:13.473Z,21.99
2022-09-29T00:38:41.546Z,21.97
2022-09-29T00:41:08.923Z,21.95
2022-09-29T00:43:47.757Z,21.95
2022-09-29T00:46:14.921Z,21.94
2022-09-29T00:48:41.430Z,21.93
2022-09-29T00:51:07.879Z,21.90
2022-09-29T00:53:34.569Z,21.91
2022-09-29T00:56:07.255Z,21.89
2022-09-29T00:58:36.415Z,21.88
2022-09-29T01:01:03.374Z,21.87
2022-09-29T01:03:32.906Z,21.88
2022-09-29T01:06:05.598Z,21.86
2022-09-29T01:08:39.760Z,21.85
2022-09-29T01:11:06.279Z,21.85
2022-09-29T01:13:33.278Z,21.84
2022-09-29T01:15:59.737Z,21.84
2022-09-29T01:18:26.569Z,21.81
2022-09-29T01:20:59.738Z,21.80
2022-09-29T01:24:00.310Z,21.80
2022-09-29T01:27:05.519Z,21.77
2022-09-29T01:29:53.327Z,21.77
2022-09-29T01:32:41.469Z,21.75
2022-09-29T01:35:19.727Z,21.74
2022-09-29T01:38:20.666Z,21.72
2022-09-29T01:41:05.937Z,21.73
2022-09-29T01:44:03.795Z,21.71
2022-09-29T01:46:35.422Z,21.70
2022-09-29T01:49:02.167Z,21.69
2022-09-29T01:55:02.834Z,21.67
2022-09-29T01:57:50.990Z,21.65
2022-09-29T02:00:18.301Z,21.63
2022-09-29T02:02:47.533Z,21.65
2022-09-29T02:05:19.888Z,21.65
2022-09-29T02:07:46.681Z,21.63
2022-09-29T02:10:18.308Z,21.63
2022-09-29T02:12:44.955Z,21.63
2022-09-29T02:15:13.922Z,21.62
2022-09-29T02:17:42.824Z,21.60
2022-09-29T02:20:11.048Z,21.62
2022-09-29T02:22:38.664Z,21.61
2022-09-29T02:25:05.659Z,21.60
2022-09-29T02:27:33.844Z,21.58
2022-09-29T02:30:00.287Z,21.56
2022-09-29T02:32:26.777Z,21.55
2022-09-29T02:34:53.279Z,21.56
2022-09-29T02:37:46.192Z,21.53
2022-09-29T02:40:25.358Z,21.54
2022-09-29T02:43:06.773Z,21.57
2022-09-29T02:46:07.374Z,21.60
2022-09-29T02:48:43.149Z,21.60
2022-09-29T02:51:11.118Z,21.59
2022-09-29T02:53:46.679Z,21.61
2022-09-29T02:56:29.708Z,21.59
2022-09-29T02:59:29.071Z,21.59
2022-09-29T03:01:56.777Z,21.59
2022-09-29T03:04:25.186Z,21.59
2022-09-29T03:06:52.158Z,21.59
2022-09-29T03:09:18.740Z,21.59
2022-09-29T03:11:45.196Z,21.57
2022-09-29T03:14:11.723Z,21.56
2022-09-29T03:16:38.299Z,21.56
2022-09-29T03:19:07.714Z,21.56
2022-09-29T03:21:34.188Z,21.50
2022-09-29T03:24:01.089Z,21.47
2022-09-29T03:26:27.895Z,21.44
2022-09-29T03:28:55.052Z,21.42
2022-09-29T03:31:21.533Z,21.40
2022-09-29T03:33:48.075Z,21.38
2022-09-29T03:36:14.608Z,21.36
2022-09-29T03:38:41.138Z,21.35
2022-09-29T03:41:07.748Z,21.34
2022-09-29T03:43:34.222Z,21.34
2022-09-29T03:46:00.846Z,21.33
2022-09-29T03:48:31.157Z,21.33
2022-09-29T03:50:57.933Z,21.30
2022-09-29T03:53:24.395Z,21.31
2022-09-29T03:55:50.990Z,21.28
2022-09-29T03:58:17.700Z,21.29
2022-09-29T04:00:44.656Z,21.30
2022-09-29T04:03:11.399Z,21.30
2022-09-29T04:05:39.145Z,21.30
2022-09-29T04:08:05.831Z,21.30
2022-09-29T04:10:36.139Z,21.30
2022-09-29T04:13:02.579Z,21.31
2022-09-29T04:15:29.511Z,21.29
2022-09-29T04:17:56.016Z,21.28
2022-09-29T04:20:22.467Z,21.27
2022-09-29T04:22:48.915Z,21.28
2022-09-29T04:25:15.514Z,21.26
2022-09-29T04:27:41.979Z,21.24
2022-09-29T04:30:09.205Z,21.23
2022-09-29T04:32:35.654Z,21.21
2022-09-29T04:35:02.169Z,21.17
2022-09-29T04:37:28.646Z,21.17
2022-09-29T04:39:58.233Z,21.16
2022-09-29T04:42:24.740Z,21.12
2022-09-29T04:44:51.194Z,21.15
2022-09-29T04:47:17.704Z,21.15
2022-09-29T04:49:44.159Z,21.15
2022-09-29T04:52:13.534Z,21.14
2022-09-29T04:54:40.154Z,21.13
2022-09-29T04:57:06.900Z,21.13
2022-09-29T04:59:33.559Z,21.12
2022-09-29T05:02:00.123Z,21.13
2022-09-29T05:04:26.669Z,21.13
2022-09-29T05:06:53.115Z,21.11
2022-09-29T05:09:24.076Z,21.12
2022-09-29T05:11:51.459Z,21.11
2022-09-29T05:14:17.953Z,21.11
2022-09-29T05:16:44.492Z,21.10
2022-09-29T05:19:11.029Z,21.09
2022-09-29T05:21:37.620Z,21.09
2022-09-29T05:24:04.123Z,21.08
2022-09-29T05:26:30.633Z,21.06
2022-09-29T05:28:57.084Z,21.05
2022-09-29T05:31:23.623Z,21.03
2022-09-29T05:33:50.948Z,21.03
2022-09-29T05:36:17.685Z,21.03
2022-09-29T05:38:44.149Z,21.02
2022-09-29T05:41:12.094Z,21.03
2022-09-29T05:43:39.299Z,21.03
2022-09-29T05:46:07.909Z,21.02
2022-09-29T05:48:34.548Z,21.03
2022-09-29T05:51:07.279Z,21.01
2022-09-29T05:53:33.769Z,21.02
2022-09-29T05:56:05.032Z,21.03
2022-09-29T05:58:31.480Z,21.03
2022-09-29T06:00:58.289Z,21.03
2022-09-29T06:03:24.778Z,21.04
2022-09-29T06:05:51.231Z,21.05
2022-09-29T06:08:18.024Z,21.07
2022-09-29T06:10:44.472Z,21.07
2022-09-29T06:13:10.923Z,21.08
2022-09-29T06:15:37.389Z,21.09
2022-09-29T06:18:03.934Z,21.09
2022-09-29T06:20:30.438Z,21.11
2022-09-29T06:22:56.899Z,21.11
2022-09-29T06:25:23.363Z,21.12
2022-09-29T06:27:49.815Z,21.22
2022-09-29T06:30:16.388Z,21.35
2022-09-29T06:32:43.334Z,21.45
2022-09-29T06:35:28.104Z,21.56
2022-09-29T06:37:56.176Z,21.70
2022-09-29T06:40:23.207Z,21.77
2022-09-29T06:42:50.295Z,21.74
2022-09-29T06:45:20.300Z,21.51
2022-09-29T06:47:48.557Z,21.34
2022-09-29T06:50:19.427Z,21.41
2022-09-29T06:53:02.010Z,21.39
2022-09-29T06:55:30.095Z,21.38
2022-09-29T06:58:01.276Z,21.41
2022-09-29T07:00:30.156Z,21.40
2022-09-29T07:02:56.641Z,21.37
2022-09-29T07:05:23.463Z,21.35
2022-09-29T07:07:52.212Z,21.35
2022-09-29T07:10:21.007Z,21.35
2022-09-29T07:12:47.446Z,21.32
2022-09-29T07:15:13.964Z,21.28
2022-09-29T07:17:40.815Z,21.28
2022-09-29T07:20:07.723Z,21.33
2022-09-29T07:22:34.166Z,21.29
2022-09-29T07:25:00.729Z,21.27
2022-09-29T07:27:27.192Z,21.26
2022-09-29T07:30:03.042Z,21.32
2022-09-29T07:32:32.475Z,21.27
2022-09-29T07:34:59.894Z,21.30
2022-09-29T07:37:27.127Z,21.31
2022-09-29T07:39:54.131Z,21.36
2022-09-29T07:42:21.386Z,21.42
2022-09-29T07:44:52.031Z,21.47
2022-09-29T07:47:19.314Z,21.54
2022-09-29T07:49:45.775Z,21.60
2022-09-29T07:52:13.123Z,21.74
2022-09-29T07:54:39.634Z,21.82
2022-09-29T07:57:06.095Z,21.89
2022-09-29T07:59:32.542Z,21.98
2022-09-29T08:01:59.032Z,21.94
2022-09-29T08:04:25.538Z,21.94
2022-09-29T08:06:51.990Z,21.99
2022-09-29T08:09:18.570Z,21.94
2022-09-29T08:11:45.187Z,21.78
2022-09-29T08:14:11.707Z,21.77
2022-09-29T08:16:38.283Z,21.85
2022-09-29T08:19:05.871Z,21.88
2022-09-29T08:21:36.467Z,21.86
2022-09-29T08:24:06.903Z,21.87
2022-09-29T08:26:42.852Z,21.89
2022-09-29T08:29:15.597Z,21.89
2022-09-29T08:31:43.823Z,21.90
2022-09-29T08:34:10.426Z,21.87
2022-09-29T08:36:36.875Z,21.86
2022-09-29T08:39:03.750Z,21.88
2022-09-29T08:41:35.335Z,21.95
2022-09-29T08:44:39.046Z,22.00
2022-09-29T08:47:18.501Z,22.05
2022-09-29T08:50:02.994Z,22.04
2022-09-29T08:52:46.227Z,22.00
2022-09-29T08:55:20.964Z,22.06
2022-09-29T08:57:48.517Z,22.04
2022-09-29T09:00:17.148Z,22.01
2022-09-29T09:03:05.183Z,22.05
2022-09-29T09:05:47.342Z,22.01
2022-09-29T09:08:19.686Z,21.98
2022-09-29T09:10:49.458Z,21.98
2022-09-29T09:13:41.599Z,22.01
2022-09-29T09:16:21.173Z,21.94
2022-09-29T09:19:05.875Z,22.01
2022-09-29T09:21:42.538Z,22.08
2022-09-29T09:24:18.427Z,22.16
2022-09-29T09:26:46.767Z,22.08
2022-09-29T09:29:24.688Z,22.03
2022-09-29T09:32:09.363Z,22.05
2022-09-29T09:34:56.559Z,22.06
2022-09-29T09:37:32.133Z,22.11
2022-09-29T09:40:11.695Z,22.20
2022-09-29T09:42:39.571Z,22.17
2022-09-29T09:45:23.802Z,22.17
2022-09-29T09:47:52.670Z,22.15
2022-09-29T09:50:20.787Z,22.15
2022-09-29T09:52:49.010Z,22.12
2022-09-29T09:55:17.092Z,22.07
2022-09-29T09:57:58.692Z,22.05
2022-09-29T10:00:47.354Z,22.14
2022-09-29T10:03:16.403Z,22.25
2022-09-29T10:05:46.018Z,22.30
2022-09-29T10:08:26.729Z,22.11
2022-09-29T10:10:58.792Z,22.09
2022-09-29T10:13:27.547Z,22.19
2022-09-29T10:16:00.880Z,22.28
2022-09-29T10:18:36.447Z,22.28
2022-09-29T10:21:02.939Z,22.31
2022-09-29T10:23:32.994Z,22.25
2022-09-29T10:26:12.721Z,22.34
2022-09-29T10:28:44.302Z,22.31
2022-09-29T10:31:26.755Z,22.22
2022-09-29T10:33:58.787Z,22.19
2022-09-29T10:36:33.552Z,22.17
2022-09-29T10:39:03.232Z,22.28
2022-09-29T10:41:31.909Z,22.37
2022-09-29T10:43:58.681Z,22.25
2022-09-29T10:46:48.531Z,22.13
2022-09-29T10:49:18.658Z,22.17
2022-09-29T10:52:22.454Z,22.23
2022-09-29T10:54:54.440Z,22.16
2022-09-29T10:57:28.151Z,22.19
2022-09-29T10:59:54.750Z,22.21
2022-09-29T11:02:31.274Z,22.24
2022-09-29T11:05:00.048Z,22.26
2022-09-29T11:07:26.863Z,22.22
2022-09-29T11:09:54.842Z,22.12
2022-09-29T11:12:28.734Z,22.25
2022-09-29T11:14:55.179Z,22.26
2022-09-29T11:17:32.149Z,22.15
2022-09-29T11:20:00.371Z,21.71
2022-09-29T11:22:51.173Z,21.12
2022-09-29T11:25:36.190Z,21.21
2022-09-29T11:28:30.094Z,21.20
2022-09-29T11:31:03.557Z,21.18
2022-09-29T11:33:35.907Z,21.40
2022-09-29T11:36:21.121Z,20.95
2022-09-29T11:39:02.115Z,21.25
2022-09-29T11:41:53.485Z,21.67
2022-09-29T11:44:43.457Z,21.97
2022-09-29T11:47:31.619Z,21.98
2022-09-29T11:50:39.943Z,21.90
2022-09-29T11:53:15.169Z,21.92
2022-09-29T11:55:43.179Z,21.80
2022-09-29T11:58:31.270Z,21.72
2022-09-29T12:01:03.749Z,21.68
2022-09-29T12:03:51.815Z,21.65
2022-09-29T12:06:26.211Z,21.71
2022-09-29T12:09:16.164Z,21.78
2022-09-29T12:12:05.162Z,21.80
2022-09-29T12:14:40.537Z,21.79
2022-09-29T12:17:16.191Z,21.75
2022-09-29T12:19:42.922Z,21.69
2022-09-29T12:22:11.079Z,21.79
2022-09-29T12:24:40.476Z,21.84
2022-09-29T12:27:10.434Z,21.79
2022-09-29T12:29:39.028Z,21.77
2022-09-29T12:32:21.674Z,21.79
2022-09-29T12:34:53.317Z,21.78
2022-09-29T12:37:31.123Z,21.74
2022-09-29T12:40:37.694Z,21.76
2022-09-29T12:43:15.690Z,21.79
2022-09-29T12:46:00.052Z,21.74
2022-09-29T12:48:39.253Z,21.76
2022-09-29T12:51:33.908Z,21.73
2022-09-29T12:54:03.085Z,21.71
2022-09-29T12:56:33.455Z,21.67
2022-09-29T12:59:03.836Z,21.68
2022-09-29T13:01:32.770Z,21.64
2022-09-29T13:04:04.971Z,21.65
2022-09-29T13:06:39.379Z,21.64
2022-09-29T13:09:24.017Z,21.67
2022-09-29T13:12:21.278Z,21.68
2022-09-29T13:15:04.802Z,21.72
2022-09-29T13:17:37.558Z,21.72
2022-09-29T13:20:07.491Z,21.74
2022-09-29T13:23:04.703Z,21.72
2022-09-29T13:25:54.775Z,21.71
2022-09-29T13:28:31.800Z,21.71
2022-09-29T13:31:01.669Z,21.68
2022-09-29T13:33:28.793Z,21.73
2022-09-29T13:35:55.276Z,21.78
2022-09-29T13:38:23.464Z,21.68
2022-09-29T13:41:22.293Z,21.69
2022-09-29T13:43:51.647Z,21.68
2022-09-29T13:46:30.054Z,21.68
2022-09-29T13:49:22.759Z,21.69
2022-09-29T13:52:21.812Z,21.73
2022-09-29T13:54:48.267Z,21.72
2022-09-29T13:57:25.373Z,21.71
2022-09-29T13:59:56.227Z,21.74
2022-09-29T14:03:04.092Z,21.72
2022-09-29T14:05:30.399Z,21.72
2022-09-29T14:07:57.404Z,21.63
2022-09-29T14:10:33.057Z,21.69
2022-09-29T14:13:04.827Z,21.72
2022-09-29T14:15:46.379Z,21.72
2022-09-29T14:18:29.890Z,21.69
2022-09-29T14:21:00.128Z,21.63
2022-09-29T14:23:44.613Z,21.65
2022-09-29T14:26:41.773Z,21.62
2022-09-29T14:29:31.643Z,21.65
2022-09-29T14:31:58.419Z,21.59
2022-09-29T14:34:26.946Z,21.60
2022-09-29T14:36:54.109Z,21.65
2022-09-29T14:39:28.023Z,21.71
2022-09-29T14:41:54.611Z,21.78
2022-09-29T14:44:50.195Z,21.81
2022-09-29T14:51:08.115Z,21.84
2022-09-29T14:53:56.990Z,21.82
2022-09-29T14:56:49.703Z,21.85
2022-09-29T14:59:21.030Z,21.87
2022-09-29T15:02:28.838Z,21.88
2022-09-29T15:04:55.406Z,21.87
2022-09-29T15:07:23.608Z,21.89
2022-09-29T15:09:59.515Z,21.88
2022-09-29T15:12:30.445Z,21.90
2022-09-29T15:14:58.075Z,21.98
2022-09-29T15:17:53.397Z,21.94
2022-09-29T15:20:33.365Z,21.94
2022-09-29T15:23:15.974Z,21.91
2022-09-29T15:25:43.581Z,21.90
2022-09-29T15:28:16.115Z,21.92
2022-09-29T15:30:42.879Z,21.90
2022-09-29T15:33:21.731Z,21.88
2022-09-29T15:35:59.371Z,21.87
2022-09-29T15:38:27.896Z,21.89
2022-09-29T15:40:55.579Z,21.86
2022-09-29T15:43:23.531Z,21.85
2022-09-29T15:45:57.559Z,21.85
2022-09-29T15:48:23.946Z,21.80
2022-09-29T15:50:52.327Z,21.86
2022-09-29T15:53:19.156Z,21.76
2022-09-29T15:55:45.640Z,21.79
2022-09-29T15:58:27.226Z,21.76
2022-09-29T16:00:59.113Z,21.75
2022-09-29T16:03:31.564Z,21.77
2022-09-29T16:06:31.673Z,21.79
2022-09-29T16:09:01.277Z,21.80
2022-09-29T16:11:30.974Z,21.78
2022-09-29T16:14:02.975Z,21.78
2022-09-29T16:16:40.695Z,21.78
2022-09-29T16:19:21.347Z,21.79
2022-09-29T16:21:51.230Z,21.80
2022-09-29T16:24:19.458Z,21.77
2022-09-29T16:26:52.355Z,21.79
2022-09-29T16:29:18.674Z,21.80
2022-09-29T16:31:46.681Z,21.80
2022-09-29T16:34:23.475Z,21.87
2022-09-29T16:36:51.899Z,21.88
2022-09-29T16:39:20.284Z,21.89
2022-09-29T16:41:50.958Z,21.93
2022-09-29T16:44:30.870Z,21.94
2022-09-29T16:47:10.248Z,21.93
2022-09-29T16:49:57.783Z,21.98
2022-09-29T16:52:48.069Z,21.93
2022-09-29T16:55:27.547Z,21.86
2022-09-29T16:57:58.745Z,21.89
2022-09-29T17:00:25.213Z,22.00
2022-09-29T17:02:52.423Z,22.15
2022-09-29T17:05:19.022Z,22.48
2022-09-29T17:07:45.528Z,22.69
2022-09-29T17:10:17.055Z,22.75
2022-09-29T17:12:43.639Z,22.68
2022-09-29T17:15:14.074Z,22.67
2022-09-29T17:17:43.779Z,22.77
2022-09-29T17:20:14.313Z,22.78
2022-09-29T17:22:40.880Z,22.97
2022-09-29T17:25:07.863Z,23.08
2022-09-29T17:27:53.098Z,23.14
2022-09-29T17:30:22.949Z,23.20
2022-09-29T17:32:50.283Z,23.23
2022-09-29T17:35:17.574Z,23.28
2022-09-29T17:37:44.213Z,23.33
2022-09-29T17:40:16.963Z,23.33
2022-09-29T17:42:47.229Z,23.47
2022-09-29T17:45:16.919Z,23.47
2022-09-29T17:47:47.079Z,23.46
2022-09-29T17:50:32.627Z,23.47
2022-09-29T17:52:59.767Z,23.50
2022-09-29T17:55:27.105Z,23.51
2022-09-29T17:57:53.729Z,23.49
2022-09-29T18:00:23.796Z,23.46
2022-09-29T18:02:51.010Z,23.49
2022-09-29T18:05:23.781Z,23.51
2022-09-29T18:07:53.905Z,23.50
2022-09-29T18:10:26.474Z,23.50
2022-09-29T18:12:53.124Z,23.49
2022-09-29T18:15:20.154Z,23.51
2022-09-29T18:17:46.972Z,23.51
2022-09-29T18:20:14.484Z,23.53
2022-09-29T18:22:43.818Z,23.54
2022-09-29T18:25:10.699Z,23.54
2022-09-29T18:27:37.137Z,23.56
2022-09-29T18:30:06.949Z,23.59
2022-09-29T18:32:33.394Z,23.65
2022-09-29T18:34:59.860Z,23.70
2022-09-29T18:37:26.303Z,23.64
2022-09-29T18:39:52.773Z,23.68
2022-09-29T18:42:19.459Z,23.61
2022-09-29T18:44:45.918Z,23.58
2022-09-29T18:47:12.814Z,23.52
2022-09-29T18:49:39.543Z,23.45
2022-09-29T18:52:05.989Z,23.47
2022-09-29T18:54:33.394Z,23.41
2022-09-29T18:57:01.270Z,23.36
2022-09-29T18:59:27.998Z,23.41
2022-09-29T19:01:54.555Z,23.48
2022-09-29T19:04:21.171Z,23.51
2022-09-29T19:06:47.680Z,23.51
2022-09-29T19:09:14.180Z,23.45
2022-09-29T19:11:40.959Z,23.51
2022-09-29T19:14:08.679Z,23.44
2022-09-29T19:16:35.370Z,23.57
2022-09-29T19:19:04.330Z,23.49
2022-09-29T19:21:32.551Z,23.45
2022-09-29T19:23:59.326Z,23.45
2022-09-29T19:26:25.767Z,23.43
2022-09-29T19:28:52.232Z,23.37
2022-09-29T19:31:19.713Z,23.47
2022-09-29T19:33:46.398Z,23.42
2022-09-29T19:36:17.717Z,23.44
2022-09-29T19:38:44.484Z,23.45
2022-09-29T19:41:15.326Z,23.50
2022-09-29T19:43:41.785Z,23.49
2022-09-29T19:46:11.472Z,23.47
2022-09-29T19:48:38.033Z,23.51
2022-09-29T19:51:23.140Z,23.49
2022-09-29T19:53:49.845Z,23.45
2022-09-29T19:56:16.686Z,23.44
2022-09-29T19:58:43.207Z,23.47
2022-09-29T20:01:10.866Z,23.44
2022-09-29T20:03:37.321Z,23.44
2022-09-29T20:06:06.276Z,23.47
2022-09-29T20:08:33.012Z,23.39
2022-09-29T20:11:07.509Z,23.43
2022-09-29T20:13:34.504Z,23.42
2022-09-29T20:16:01.214Z,23.48
2022-09-29T20:18:28.093Z,23.51
2022-09-29T20:20:54.609Z,23.69
2022-09-29T20:23:21.397Z,23.85
2022-09-29T20:25:47.844Z,24.01
2022-09-29T20:28:15.607Z,24.14
2022-09-29T20:30:42.231Z,24.27
2022-09-29T20:33:08.679Z,24.21
2022-09-29T20:35:38.169Z,24.20
2022-09-29T20:38:04.617Z,24.27
2022-09-29T20:40:31.734Z,24.69
2022-09-29T20:42:58.181Z,24.86
2022-09-29T20:45:24.663Z,24.91
2022-09-29T20:47:51.098Z,24.91
2022-09-29T20:50:17.899Z,24.95
2022-09-29T20:52:44.342Z,24.99
2022-09-29T20:55:11.975Z,24.96
2022-09-29T20:57:40.777Z,24.96
2022-09-29T21:00:13.095Z,24.98
2022-09-29T21:02:39.680Z,24.97
2022-09-29T21:05:06.580Z,24.98
2022-09-29T21:07:36.327Z,25.02
2022-09-29T21:10:04.283Z,25.01
2022-09-29T21:12:32.003Z,24.99
2022-09-29T21:14:59.603Z,24.97
2022-09-29T21:17:26.404Z,24.86
2022-09-29T21:19:52.892Z,24.67
2022-09-29T21:22:20.684Z,24.81
2022-09-29T21:24:50.426Z,24.94
2022-09-29T21:27:17.797Z,24.95
2022-09-29T21:29:44.855Z,24.94
2022-09-29T21:32:11.638Z,24.93
2022-09-29T21:34:38.095Z,24.92
2022-09-29T21:37:04.529Z,24.93
2022-09-29T21:39:30.967Z,24.92
2022-09-29T21:41:57.430Z,24.89
2022-09-29T21:44:24.670Z,24.91
2022-09-29T21:46:51.464Z,24.89
2022-09-29T21:49:19.408Z,24.80
2022-09-29T21:51:48.119Z,24.57
2022-09-29T21:54:19.440Z,24.54
2022-09-29T21:56:46.733Z,24.76
2022-09-29T21:59:15.449Z,24.82
2022-09-29T22:01:42.040Z,24.82
2022-09-29T22:04:09.001Z,24.81
2022-09-29T22:06:35.783Z,24.80
2022-09-29T22:09:02.457Z,24.78
2022-09-29T22:11:33.150Z,24.77
2022-09-29T22:14:00.307Z,24.76
2022-09-29T22:16:29.182Z,24.74
2022-09-29T22:19:21.290Z,24.73
2022-09-29T22:21:42.958Z,24.71
2022-09-29T22:24:12.676Z,24.68
2022-09-29T22:26:39.747Z,24.67
2022-09-29T22:29:06.190Z,24.61
2022-09-29T22:31:33.564Z,24.57
2022-09-29T22:34:01.341Z,24.39
2022-09-29T22:36:29.447Z,24.29
2022-09-29T22:38:56.307Z,24.13
2022-09-29T22:41:25.618Z,24.07
2022-09-29T22:43:53.247Z,24.06
2022-09-29T22:46:21.378Z,24.06
2022-09-29T22:48:47.908Z,24.04
2022-09-29T22:51:14.561Z,24.02
2022-09-29T22:53:41.326Z,24.01
2022-09-29T22:56:12.825Z,23.97
2022-09-29T22:58:40.354Z,23.94
2022-09-29T23:01:12.349Z,23.93
2022-09-29T23:03:39.099Z,23.89
2022-09-29T23:06:08.552Z,23.85
2022-09-29T23:08:35.249Z,23.84
2022-09-29T23:11:04.321Z,23.81
2022-09-29T23:13:31.510Z,23.78
2022-09-29T23:16:12.075Z,23.77
2022-09-29T23:18:43.892Z,23.75
2022-09-29T23:21:11.717Z,23.72
2022-09-29T23:23:38.192Z,23.70
2022-09-29T23:26:04.771Z,23.70
2022-09-29T23:28:31.209Z,23.68
2022-09-29T23:31:02.977Z,23.65
2022-09-29T23:33:29.447Z,23.66
2022-09-29T23:35:55.900Z,23.64
2022-09-29T23:38:40.714Z,23.60
2022-09-29T23:41:08.002Z,23.55
2022-09-29T23:43:34.712Z,23.56
2022-09-29T23:46:01.406Z,23.54
2022-09-29T23:48:28.560Z,23.49
2022-09-29T23:50:55.307Z,23.49
2022-09-29T23:53:21.755Z,23.43
2022-09-29T23:55:48.212Z,23.38
2022-09-29T23:58:14.971Z,23.35
